Time;durP1;ratioP1;P1;durP2;ratioP2;P2;SDS_P1;SDS_P2;PMS_P1;PMS_P2;Temp;Humidity;BMP_temperature;BMP_pressure;BME280_temperature;BME280_humidity;BME280_pressure;Samples;Min_cycle;Max_cycle;Signal;HPM_P1;HPM_P2
2021/10/31 00:00:58;;;;;;;;;;;;;;;8.82;100.00;100127.34;5153599;27;19931;-72
2021/10/31 00:03:25;;;;;;;;;;;;;;;8.78;100.00;100136.69;5153341;27;19945;-72
2021/10/31 00:05:51;;;;;;;;;;;;;;;8.74;100.00;100137.94;5153367;27;19923;-72
2021/10/31 00:08:17;;;;;;;;;;;;;;;8.66;100.00;100137.72;5153524;27;19956;-72
2021/10/31 00:10:45;;;;;;;;;;;;;;;8.54;100.00;100145.84;5153333;27;19971;-71
2021/10/31 00:13:12;;;;;;;;;;;;;;;8.39;100.00;100144.34;5153829;27;19927;-73
2021/10/31 00:15:38;;;;;;;;;;;;;;;8.22;100.00;100151.16;5153463;27;20014;-72
2021/10/31 00:18:06;;;;;;;;;;;;;;;8.12;100.00;100153.72;5153552;27;20021;-72
2021/10/31 00:20:32;;;;;;;;;;;;;;;7.98;100.00;100167.50;5153208;27;19987;-72
2021/10/31 00:22:58;;;;;;;;;;;;;;;7.88;100.00;100170.91;5153235;27;20019;-72
2021/10/31 00:25:25;;;;;;;;;;;;;;;7.79;100.00;100166.25;5153147;27;19929;-72
2021/10/31 00:27:51;;;;;;;;;;;;;;;7.71;100.00;100163.28;5153411;27;20017;-74
2021/10/31 00:30:17;;;;;;;;;;;;;;;7.60;100.00;100166.78;5153170;27;19930;-73
2021/10/31 00:32:44;;;;;;;;;;;;;;;7.48;100.00;100170.44;5153217;27;19927;-73
2021/10/31 00:35:11;;;;;;;;;;;;;;;7.47;100.00;100174.13;5153515;27;20341;-73
2021/10/31 00:37:38;;;;;;;;;;;;;;;7.52;100.00;100180.91;5153220;27;19964;-73
2021/10/31 00:40:05;;;;;;;;;;;;;;;7.58;100.00;100174.16;5152915;27;19922;-73
2021/10/31 00:42:31;;;;;;;;;;;;;;;7.63;100.00;100176.50;5152740;27;19955;-73
2021/10/31 00:44:57;;;;;;;;;;;;;;;7.70;100.00;100178.63;5153546;27;19973;-73
2021/10/31 00:47:24;;;;;;;;;;;;;;;7.81;100.00;100183.16;5153308;27;19934;-73
2021/10/31 00:49:50;;;;;;;;;;;;;;;7.88;100.00;100187.13;5152817;27;19923;-73
2021/10/31 00:52:18;;;;;;;;;;;;;;;7.92;100.00;100186.88;5153339;27;20017;-73
2021/10/31 00:54:44;;;;;;;;;;;;;;;7.95;100.00;100173.13;5156231;27;20030;-72
2021/10/31 00:57:11;;;;;;;;;;;;;;;7.97;100.00;100165.75;5157446;27;19955;-73
2021/10/31 00:59:37;;;;;;;;;;;;;;;7.94;100.00;100174.97;5157102;27;19959;-73
2021/10/31 01:02:08;;;;;;;;;;;;;;;7.87;100.00;100182.72;5156641;27;19927;-73
2021/10/31 01:04:34;;;;;;;;;;;;;;;7.82;100.00;100182.19;5157362;27;20021;-73
2021/10/31 01:07:11;;;;;;;;;;;;;;;7.80;100.00;100186.00;5157159;27;20307;-72
2021/10/31 01:09:46;;;;;;;;;;;;;;;7.79;100.00;100193.25;5157254;27;19965;-73
2021/10/31 01:12:18;;;;;;;;;;;;;;;7.79;100.00;100193.25;5156881;27;20029;-73
2021/10/31 01:14:51;;;;;;;;;;;;;;;7.85;100.00;100192.75;5157192;27;19930;-73
2021/10/31 01:17:29;;;;;;;;;;;;;;;7.87;100.00;100201.63;5158736;27;19923;-73
2021/10/31 01:20:06;;;;;;;;;;;;;;;7.85;100.00;100203.56;5157100;27;20344;-73
2021/10/31 01:22:40;;;;;;;;;;;;;;;7.85;100.00;100200.88;5156813;27;19923;-73
2021/10/31 01:25:25;;;;;;;;;;;;;;;7.82;100.00;100201.13;5156715;27;19927;-73
2021/10/31 01:27:58;;;;;;;;;;;;;;;7.74;100.00;100206.25;5156509;27;20273;-73
2021/10/31 01:30:29;;;;;;;;;;;;;;;7.71;100.00;100201.94;5156481;27;19930;-73
2021/10/31 01:33:02;;;;;;;;;;;;;;;7.74;100.00;100206.25;5156407;27;19976;-73
2021/10/31 01:35:33;;;;;;;;;;;;;;;7.77;100.00;100202.47;5156529;27;20435;-73
2021/10/31 01:38:04;;;;;;;;;;;;;;;7.77;100.00;100208.72;5156261;27;19969;-73
2021/10/31 01:40:36;;;;;;;;;;;;;;;7.78;100.00;100212.28;5155976;27;19945;-73
2021/10/31 01:43:06;;;;;;;;;;;;;;;7.78;100.00;100206.91;5156694;27;20269;-73
2021/10/31 01:45:43;;;;;;;;;;;;;;;7.78;100.00;100207.75;5156304;27;19923;-73
2021/10/31 01:48:14;;;;;;;;;;;;;;;7.74;100.00;100200.84;5156358;27;19929;-73
2021/10/31 01:50:43;;;;;;;;;;;;;;;7.69;100.00;100208.44;5156038;27;20019;-73
2021/10/31 01:53:10;;;;;;;;;;;;;;;7.62;100.00;100215.31;5155913;27;19927;-73
2021/10/31 01:55:42;;;;;;;;;;;;;;;7.56;100.00;100223.88;5155780;27;19923;-73
2021/10/31 01:58:09;;;;;;;;;;;;;;;7.54;100.00;100216.75;5156257;27;20403;-73
2021/10/31 02:00:36;;;;;;;;;;;;;;;7.51;100.00;100211.59;5154605;27;20395;-73
2021/10/31 02:03:03;;;;;;;;;;;;;;;7.49;100.00;100212.69;5155739;27;20017;-73
2021/10/31 02:05:31;;;;;;;;;;;;;;;7.43;100.00;100210.44;5154813;27;20360;-73
2021/10/31 02:08:01;;;;;;;;;;;;;;;7.38;100.00;100216.22;5155654;27;20058;-73
2021/10/31 02:10:30;;;;;;;;;;;;;;;7.30;100.00;100219.50;5155756;27;19956;-73
2021/10/31 02:12:57;;;;;;;;;;;;;;;7.22;100.00;100215.66;5155405;27;19923;-73
2021/10/31 02:15:24;;;;;;;;;;;;;;;7.14;100.00;100218.94;5155744;27;19954;-73
2021/10/31 02:17:52;;;;;;;;;;;;;;;6.99;100.00;100221.78;5155561;27;19945;-73
2021/10/31 02:20:19;;;;;;;;;;;;;;;6.91;100.00;100228.72;5155447;27;20031;-73
2021/10/31 02:22:51;;;;;;;;;;;;;;;6.83;100.00;100230.16;5155691;27;19926;-73
2021/10/31 02:25:17;;;;;;;;;;;;;;;6.75;100.00;100237.94;5155420;27;20009;-71
2021/10/31 02:27:45;;;;;;;;;;;;;;;6.68;100.00;100240.25;5155538;27;19923;-73
2021/10/31 02:30:12;;;;;;;;;;;;;;;6.71;100.00;100244.56;5154984;27;19923;-73
2021/10/31 02:32:38;;;;;;;;;;;;;;;6.69;100.00;100246.47;5155464;27;19930;-73
2021/10/31 02:35:08;;;;;;;;;;;;;;;6.58;100.00;100257.19;5155170;27;19927;-73
2021/10/31 02:37:35;;;;;;;;;;;;;;;6.45;100.00;100259.91;5155486;27;19930;-73
2021/10/31 02:40:03;;;;;;;;;;;;;;;6.34;100.00;100253.44;5155032;27;19953;-73
2021/10/31 02:42:29;;;;;;;;;;;;;;;6.24;100.00;100256.88;5155109;27;19923;-73
2021/10/31 02:44:56;;;;;;;;;;;;;;;6.16;100.00;100257.41;5155120;27;19965;-73
2021/10/31 02:47:25;;;;;;;;;;;;;;;6.10;100.00;100264.13;5154500;27;20345;-73
2021/10/31 02:49:51;;;;;;;;;;;;;;;6.06;100.00;100268.00;5155146;27;20009;-73
2021/10/31 02:52:19;;;;;;;;;;;;;;;6.00;100.00;100266.59;5153411;27;19961;-73
2021/10/31 02:54:51;;;;;;;;;;;;;;;5.98;100.00;100263.13;5155002;27;20017;-73
2021/10/31 02:57:20;;;;;;;;;;;;;;;5.98;100.00;100259.59;5154726;27;19992;-73
2021/10/31 02:59:48;;;;;;;;;;;;;;;6.00;100.00;100269.28;5154808;27;20017;-73
2021/10/31 03:02:15;;;;;;;;;;;;;;;6.03;100.00;100265.53;5154703;27;19934;-72
2021/10/31 03:04:42;;;;;;;;;;;;;;;6.04;100.00;100261.88;5154646;27;19923;-73
2021/10/31 03:07:09;;;;;;;;;;;;;;;6.01;100.00;100262.06;5154298;27;19923;-72
2021/10/31 03:09:36;;;;;;;;;;;;;;;6.01;100.00;100268.34;5154616;27;20021;-73
2021/10/31 03:12:02;;;;;;;;;;;;;;;6.05;100.00;100262.72;5154476;27;19965;-72
2021/10/31 03:14:30;;;;;;;;;;;;;;;6.02;100.00;100263.78;5154451;27;20026;-73
2021/10/31 03:16:57;;;;;;;;;;;;;;;6.00;100.00;100277.38;5154488;27;20006;-73
2021/10/31 03:19:23;;;;;;;;;;;;;;;5.97;100.00;100272.19;5154293;27;20014;-73
2021/10/31 03:21:49;;;;;;;;;;;;;;;5.95;100.00;100268.72;5153725;27;19926;-73
2021/10/31 03:24:15;;;;;;;;;;;;;;;5.92;100.00;100279.72;5154408;27;20026;-73
2021/10/31 03:26:42;;;;;;;;;;;;;;;5.88;100.00;100275.50;5154147;27;20411;-73
2021/10/31 03:29:08;;;;;;;;;;;;;;;5.87;100.00;100279.16;5154473;27;20425;-72
2021/10/31 03:31:36;;;;;;;;;;;;;;;5.87;100.00;100279.16;5154080;27;20025;-73
2021/10/31 03:34:03;;;;;;;;;;;;;;;5.90;100.00;100283.47;5154239;27;20022;-73
2021/10/31 03:36:29;;;;;;;;;;;;;;;5.86;100.00;100275.59;5153933;27;19923;-73
2021/10/31 03:38:55;;;;;;;;;;;;;;;5.80;100.00;100284.09;5154256;27;20275;-73
2021/10/31 03:41:21;;;;;;;;;;;;;;;5.78;100.00;100272.56;5153404;27;19923;-72
2021/10/31 03:43:48;;;;;;;;;;;;;;;5.77;100.00;100273.53;5153908;27;20014;-73
2021/10/31 03:46:14;;;;;;;;;;;;;;;5.75;100.00;100272.78;5153997;27;20456;-72
2021/10/31 03:48:42;;;;;;;;;;;;;;;5.73;100.00;100273.84;5153973;27;20419;-73
2021/10/31 03:51:08;;;;;;;;;;;;;;;5.76;100.00;100285.28;5153512;27;20030;-72
2021/10/31 03:53:34;;;;;;;;;;;;;;;5.84;100.00;100290.16;5153663;27;19923;-73
2021/10/31 03:56:01;;;;;;;;;;;;;;;5.93;100.00;100292.19;5153740;27;20014;-73
2021/10/31 03:58:27;;;;;;;;;;;;;;;5.99;100.00;100299.88;5153858;27;19931;-73
2021/10/31 04:00:53;;;;;;;;;;;;;;;5.97;100.00;100300.94;5153189;27;20359;-72
2021/10/31 04:03:20;;;;;;;;;;;;;;;6.01;100.00;100300.66;5153520;27;20034;-72
2021/10/31 04:05:47;;;;;;;;;;;;;;;6.02;100.00;100304.22;5152309;27;19962;-72
2021/10/31 04:08:13;;;;;;;;;;;;;;;6.01;100.00;100305.16;5153505;27;20014;-73
2021/10/31 04:10:40;;;;;;;;;;;;;;;6.00;100.00;100303.47;5152085;27;20038;-73
2021/10/31 04:13:06;;;;;;;;;;;;;;;6.06;100.00;100311.09;5153504;27;20014;-73
2021/10/31 04:15:32;;;;;;;;;;;;;;;6.12;100.00;100321.47;5153159;27;19923;-73
2021/10/31 04:17:59;;;;;;;;;;;;;;;6.23;100.00;100325.25;5153602;27;20030;-73
2021/10/31 04:20:25;;;;;;;;;;;;;;;6.47;100.00;100328.09;5153377;27;20018;-73
2021/10/31 04:22:53;;;;;;;;;;;;;;;6.66;100.00;100322.25;5153173;27;20021;-73
2021/10/31 04:25:19;;;;;;;;;;;;;;;6.84;100.00;100312.81;5153491;27;19967;-73
2021/10/31 04:27:45;;;;;;;;;;;;;;;6.86;100.00;100318.97;5152655;27;19927;-73
2021/10/31 04:30:13;;;;;;;;;;;;;;;7.05;100.00;100317.63;5153012;27;20387;-73
2021/10/31 04:32:39;;;;;;;;;;;;;;;7.13;100.00;100312.53;5152994;27;19923;-73
2021/10/31 04:35:06;;;;;;;;;;;;;;;7.28;100.00;100298.88;5153067;27;20221;-73
2021/10/31 04:37:36;;;;;;;;;;;;;;;7.39;100.00;100298.94;5153275;27;20349;-73
2021/10/31 04:40:06;;;;;;;;;;;;;;;7.42;100.00;100304.13;5152988;27;19927;-73
2021/10/31 04:42:33;;;;;;;;;;;;;;;7.39;100.00;100304.34;5153198;27;19983;-72
2021/10/31 04:44:59;;;;;;;;;;;;;;;7.32;100.00;100309.34;5152972;27;19923;-73
2021/10/31 04:47:26;;;;;;;;;;;;;;;7.30;100.00;100322.09;5153260;27;20013;-73
2021/10/31 04:49:52;;;;;;;;;;;;;;;7.34;100.00;100326.28;5153001;27;20006;-73
2021/10/31 04:52:18;;;;;;;;;;;;;;;7.46;100.00;100327.22;5152782;27;20402;-73
2021/10/31 04:54:45;;;;;;;;;;;;;;;7.47;100.00;100319.97;5153200;27;20008;-73
2021/10/31 04:57:13;;;;;;;;;;;;;;;7.45;100.00;100325.47;5152848;27;20444;-73
2021/10/31 04:59:39;;;;;;;;;;;;;;;7.51;100.00;100325.03;5152787;27;19963;-73
2021/10/31 05:02:06;;;;;;;;;;;;;;;7.51;100.00;100322.34;5151370;27;19927;-73
2021/10/31 05:04:32;;;;;;;;;;;;;;;7.56;100.00;100324.69;5152934;27;20337;-73
2021/10/31 05:06:58;;;;;;;;;;;;;;;7.54;100.00;100329.34;5153216;27;20018;-73
2021/10/31 05:09:24;;;;;;;;;;;;;;;7.52;100.00;100332.16;5152980;27;20041;-73
2021/10/31 05:11:51;;;;;;;;;;;;;;;7.51;100.00;100327.72;5152479;27;20164;-73
2021/10/31 05:14:18;;;;;;;;;;;;;;;7.51;100.00;100327.72;5152775;27;19975;-73
2021/10/31 05:16:45;;;;;;;;;;;;;;;7.50;100.00;100326.00;5152920;27;20475;-73
2021/10/31 05:19:12;;;;;;;;;;;;;;;7.45;100.00;100324.63;5152705;27;20295;-73
2021/10/31 05:21:39;;;;;;;;;;;;;;;7.44;100.00;100323.78;5152498;27;19946;-73
2021/10/31 05:24:05;;;;;;;;;;;;;;;7.47;100.00;100323.53;5152567;27;19969;-73
2021/10/31 05:26:32;;;;;;;;;;;;;;;7.50;100.00;100326.00;5152922;27;20024;-73
2021/10/31 05:28:58;;;;;;;;;;;;;;;7.56;100.00;100331.94;5152573;27;20344;-73
2021/10/31 05:31:25;;;;;;;;;;;;;;;7.55;100.00;100333.78;5152425;27;19980;-73
2021/10/31 05:33:52;;;;;;;;;;;;;;;7.59;100.00;100337.97;5151629;27;19927;-73
2021/10/31 05:36:19;;;;;;;;;;;;;;;7.70;100.00;100339.88;5152443;27;20023;-73
2021/10/31 05:38:45;;;;;;;;;;;;;;;7.83;100.00;100346.06;5152733;27;20029;-73
2021/10/31 05:41:12;;;;;;;;;;;;;;;7.92;100.00;100346.34;5154150;27;19986;-73
2021/10/31 05:43:38;;;;;;;;;;;;;;;8.02;100.00;100340.09;5156506;27;20124;-75
2021/10/31 05:46:04;;;;;;;;;;;;;;;8.12;100.00;100342.09;5156333;27;20363;-73
2021/10/31 05:48:32;;;;;;;;;;;;;;;8.21;100.00;100341.41;5155901;27;20006;-73
2021/10/31 05:50:58;;;;;;;;;;;;;;;8.28;100.00;100344.50;5155822;27;20014;-73
2021/10/31 05:53:25;;;;;;;;;;;;;;;8.34;100.00;100338.63;5155872;27;19923;-73
2021/10/31 05:55:51;;;;;;;;;;;;;;;8.42;100.00;100335.28;5155001;27;20354;-72
2021/10/31 05:58:17;;;;;;;;;;;;;;;8.46;100.00;100348.50;5156015;27;19962;-73
2021/10/31 06:00:44;;;;;;;;;;;;;;;8.48;100.00;100343.81;5147993;27;20369;-74
2021/10/31 06:03:10;;;;;;;;;;;;;;;8.51;100.00;100356.22;5155312;27;20021;-73
2021/10/31 06:05:39;;;;;;;;;;;;;;;8.54;100.00;100367.69;5155307;27;19923;-73
2021/10/31 06:08:12;;;;;;;;;;;;;;;8.58;100.00;100364.72;5155347;27;19923;-73
2021/10/31 06:10:38;;;;;;;;;;;;;;;8.63;100.00;100359.81;5148420;27;20025;-73
2021/10/31 06:13:05;;;;;;;;;;;;;;;8.67;100.00;100375.72;5134912;27;20081;-73
2021/10/31 06:15:31;;;;;;;;;;;;;;;8.70;100.00;100363.78;5134653;27;19959;-73
2021/10/31 06:17:58;;;;;;;;;;;;;;;8.72;100.00;100369.91;5153749;27;19934;-73
2021/10/31 06:20:24;;;;;;;;;;;;;;;8.74;100.00;100364.38;5153902;27;20329;-73
2021/10/31 06:22:52;;;;;;;;;;;;;;;8.73;100.00;100358.13;5153290;27;19923;-73
2021/10/31 06:25:18;;;;;;;;;;;;;;;8.69;100.00;100359.34;5154485;27;20014;-73
2021/10/31 06:27:44;;;;;;;;;;;;;;;8.67;100.00;100366.72;5154593;27;20018;-73
2021/10/31 06:30:11;;;;;;;;;;;;;;;8.65;100.00;100363.28;5154759;27;20010;-73
2021/10/31 06:32:37;;;;;;;;;;;;;;;8.63;100.00;100359.81;5152333;27;19979;-73
2021/10/31 06:35:04;;;;;;;;;;;;;;;8.61;100.00;100357.25;5156132;27;20030;-73
2021/10/31 06:37:30;;;;;;;;;;;;;;;8.60;100.00;100374.44;5155364;27;20026;-74
2021/10/31 06:39:58;;;;;;;;;;;;;;;8.62;100.00;100385.16;5153500;27;19970;-74
2021/10/31 06:42:26;;;;;;;;;;;;;;;8.64;100.00;100375.94;5154007;27;19930;-73
2021/10/31 06:44:53;;;;;;;;;;;;;;;8.67;100.00;100372.13;5149509;27;19928;-74
2021/10/31 06:47:19;;;;;;;;;;;;;;;8.73;100.00;100376.22;5154760;27;20018;-74
2021/10/31 06:49:45;;;;;;;;;;;;;;;8.77;100.00;100381.25;5149685;27;19966;-74
2021/10/31 06:52:12;;;;;;;;;;;;;;;8.82;100.00;100389.88;5133479;27;19923;-74
2021/10/31 06:54:38;;;;;;;;;;;;;;;8.89;100.00;100387.53;5134047;27;19992;-74
2021/10/31 06:57:06;;;;;;;;;;;;;;;8.97;100.00;100387.78;5133791;27;19966;-74
2021/10/31 06:59:32;;;;;;;;;;;;;;;9.06;100.00;100399.72;5149627;27;20003;-74
2021/10/31 07:01:59;;;;;;;;;;;;;;;9.15;100.00;100404.41;5154330;27;19923;-74
2021/10/31 07:04:26;;;;;;;;;;;;;;;9.27;100.00;100398.97;5153547;27;20392;-74
2021/10/31 07:06:52;;;;;;;;;;;;;;;9.43;100.00;100393.19;5154816;27;20361;-74
2021/10/31 07:09:18;;;;;;;;;;;;;;;9.58;100.00;100378.38;5153028;27;20010;-74
2021/10/31 07:11:45;;;;;;;;;;;;;;;9.76;100.00;100384.09;5154391;27;20026;-76
2021/10/31 07:14:12;;;;;;;;;;;;;;;9.94;100.00;100384.44;5152034;27;20422;-75
2021/10/31 07:16:39;;;;;;;;;;;;;;;10.14;100.00;100390.88;5145450;27;20033;-75
2021/10/31 07:19:05;;;;;;;;;;;;;;;10.35;100.00;100395.50;5133488;27;20018;-76
2021/10/31 07:21:31;;;;;;;;;;;;;;;10.60;100.00;100391.53;5132998;27;19966;-75
2021/10/31 07:23:58;;;;;;;;;;;;;;;10.86;100.00;100391.97;5133764;27;19924;-75
2021/10/31 07:26:24;;;;;;;;;;;;;;;11.04;100.00;100383.19;5133238;27;19927;-75
2021/10/31 07:28:52;;;;;;;;;;;;;;;11.13;100.00;100384.22;5133404;27;19959;-75
2021/10/31 07:31:22;;;;;;;;;;;;;;;11.41;100.00;100382.63;5132971;27;20307;-76
2021/10/31 07:33:49;;;;;;;;;;;;;;;11.62;100.00;100384.38;5133627;27;19946;-76
2021/10/31 07:36:15;;;;;;;;;;;;;;;11.94;100.00;100384.13;5133039;27;20014;-76
2021/10/31 07:38:43;;;;;;;;;;;;;;;12.21;100.00;100380.75;5133003;27;20022;-76
2021/10/31 07:41:09;;;;;;;;;;;;;;;12.52;100.00;100380.56;5131701;27;19945;-75
2021/10/31 07:43:35;;;;;;;;;;;;;;;12.89;100.00;100385.22;5131744;27;19976;-74
2021/10/31 07:46:01;;;;;;;;;;;;;;;13.16;100.00;100389.00;5133105;27;19969;-73
2021/10/31 07:48:29;;;;;;;;;;;;;;;13.31;100.00;100392.06;5132900;27;19992;-76
2021/10/31 07:50:56;;;;;;;;;;;;;;;13.59;100.00;100388.50;5132999;27;19959;-76
2021/10/31 07:53:22;;;;;;;;;;;;;;;13.75;100.00;100387.84;5133076;27;20372;-75
2021/10/31 07:55:51;;;;;;;;;;;;;;;13.97;100.00;100381.94;5132465;27;19923;-75
2021/10/31 07:58:20;;;;;;;;;;;;;;;14.13;100.00;100367.59;5132904;27;19934;-76
2021/10/31 08:00:47;;;;;;;;;;;;;;;14.26;100.00;100366.31;5132599;27;19934;-75
2021/10/31 08:03:13;;;;;;;;;;;;;;;14.31;100.00;100378.50;5131654;27;20377;-75
2021/10/31 08:05:42;;;;;;;;;;;;;;;14.25;100.00;100375.56;5132623;27;20023;-76
2021/10/31 08:08:09;;;;;;;;;;;;;;;14.48;100.00;100376.75;5132712;27;19928;-76
2021/10/31 08:10:35;;;;;;;;;;;;;;;14.71;100.00;100368.06;5132592;27;20364;-76
2021/10/31 08:13:02;;;;;;;;;;;;;;;14.80;100.00;100375.31;5132722;27;20018;-75
2021/10/31 08:15:29;;;;;;;;;;;;;;;14.97;100.00;100378.16;5132260;27;20423;-76
2021/10/31 08:17:55;;;;;;;;;;;;;;;15.12;100.00;100378.41;5132468;27;19928;-76
2021/10/31 08:20:23;;;;;;;;;;;;;;;15.02;100.00;100381.28;5132462;27;20010;-75
2021/10/31 08:22:50;;;;;;;;;;;;;;;14.69;100.00;100378.31;5132052;27;20415;-76
2021/10/31 08:25:17;;;;;;;;;;;;;;;14.41;100.00;100378.41;5132487;27;19957;-75
2021/10/31 08:27:44;;;;;;;;;;;;;;;14.30;100.00;100371.34;5132188;27;19985;-75
2021/10/31 08:30:10;;;;;;;;;;;;;;;14.00;100.00;100367.13;5132062;28;19924;-76
2021/10/31 08:32:42;;;;;;;;;;;;;;;13.90;100.00;100378.13;5132069;28;20415;-75
2021/10/31 08:35:08;;;;;;;;;;;;;;;13.99;100.00;100359.94;5132215;28;19976;-75
2021/10/31 08:37:35;;;;;;;;;;;;;;;14.13;100.00;100353.94;5132674;28;20338;-75
2021/10/31 08:40:02;;;;;;;;;;;;;;;14.20;100.00;100356.91;5131981;28;20034;-75
2021/10/31 08:42:29;;;;;;;;;;;;;;;14.07;100.00;100347.25;5132389;28;20468;-74
2021/10/31 08:44:55;;;;;;;;;;;;;;;14.49;100.00;100348.44;5132286;27;19980;-75
2021/10/31 08:47:22;;;;;;;;;;;;;;;15.09;100.00;100360.47;5132356;28;20431;-76
2021/10/31 08:49:48;;;;;;;;;;;;;;;15.06;100.00;100366.25;5132187;27;20009;-75
2021/10/31 08:52:14;;;;;;;;;;;;;;;15.06;100.00;100371.72;5132128;28;19962;-75
2021/10/31 08:54:40;;;;;;;;;;;;;;;15.16;100.00;100380.63;5132481;27;20396;-75
2021/10/31 08:57:08;;;;;;;;;;;;;;;15.26;100.00;100393.34;5131897;27;19924;-76
2021/10/31 08:59:35;;;;;;;;;;;;;;;15.28;100.00;100391.31;5131959;28;20010;-75
2021/10/31 09:02:01;;;;;;;;;;;;;;;15.49;100.00;100390.88;5131957;28;19923;-75
2021/10/31 09:04:28;;;;;;;;;;;;;;;15.81;100.00;100383.84;5132221;28;19977;-76
2021/10/31 09:06:54;;;;;;;;;;;;;;;16.09;100.00;100378.06;5132104;27;20445;-76
2021/10/31 09:09:20;;;;;;;;;;;;;;;16.20;100.00;100378.59;5132021;28;20014;-75
2021/10/31 09:11:47;;;;;;;;;;;;;;;16.32;100.00;100373.63;5151921;27;19923;-76
2021/10/31 09:14:14;;;;;;;;;;;;;;;16.45;100.00;100369.50;5152057;27;20116;-75
2021/10/31 09:16:41;;;;;;;;;;;;;;;16.42;100.00;100373.44;5156980;27;20021;-75
2021/10/31 09:19:07;;;;;;;;;;;;;;;16.11;100.00;100362.34;5156677;27;20038;-75
2021/10/31 09:21:33;;;;;;;;;;;;;;;16.26;100.00;100368.84;5156468;27;19962;-75
2021/10/31 09:23:59;;;;;;;;;;;;;;;16.19;100.00;100368.69;5156556;27;20361;-75
2021/10/31 09:26:26;;;;;;;;;;;;;;;16.42;100.00;100357.00;5156620;27;20392;-75
2021/10/31 09:28:52;;;;;;;;;;;;;;;16.51;100.00;100358.72;5156612;27;19970;-75
2021/10/31 09:31:20;;;;;;;;;;;;;;;16.69;100.00;100357.69;5156146;27;20031;-75
2021/10/31 09:33:47;;;;;;;;;;;;;;;17.13;100.00;100354.53;5156664;27;20037;-76
2021/10/31 09:36:13;;;;;;;;;;;;;;;17.28;100.00;100351.91;5156206;27;20184;-76
2021/10/31 09:38:40;;;;;;;;;;;;;;;17.12;100.00;100352.81;5155333;27;19923;-75
2021/10/31 09:41:06;;;;;;;;;;;;;;;17.28;100.00;100340.09;5155993;27;20424;-76
2021/10/31 09:43:43;;;;;;;;;;;;;;;17.32;100.00;100341.44;5155990;27;19995;-76
2021/10/31 09:46:09;;;;;;;;;;;;;;;17.71;100.00;100341.38;5156348;27;19923;-75
2021/10/31 09:48:37;;;;;;;;;;;;;;;17.70;100.00;100339.69;5156334;27;20010;-76
2021/10/31 09:51:05;;;;;;;;;;;;;;;17.76;100.00;100343.59;5156126;27;20010;-75
2021/10/31 09:53:31;;;;;;;;;;;;;;;17.46;100.00;100339.81;5155917;27;19927;-75
2021/10/31 09:55:58;;;;;;;;;;;;;;;17.53;100.00;100344.41;5155989;27;20371;-75
2021/10/31 09:58:26;;;;;;;;;;;;;;;16.77;100.00;100345.84;5155758;27;19927;-75
2021/10/31 10:00:54;;;;;;;;;;;;;;;16.56;100.00;100337.16;5155576;27;19923;-75
2021/10/31 10:03:34;;;;;;;;;;;;;;;16.17;100.00;100337.03;5155127;27;20372;-75
2021/10/31 10:06:19;;;;;;;;;;;;;;;16.15;100.00;100333.59;5155782;27;20021;-75
2021/10/31 10:08:59;;;;;;;;;;;;;;;15.92;100.00;100325.19;5155634;27;19923;-74
2021/10/31 10:11:26;;;;;;;;;;;;;;;16.14;100.00;100332.75;5155200;27;19927;-74
2021/10/31 10:13:52;;;;;;;;;;;;;;;16.52;100.00;100324.81;5154405;27;20332;-74
2021/10/31 10:16:28;;;;;;;;;;;;;;;16.70;100.00;100323.75;5155376;27;19987;-74
2021/10/31 10:18:55;;;;;;;;;;;;;;;16.99;100.00;100320.47;5155149;27;20395;-74
2021/10/31 10:21:23;;;;;;;;;;;;;;;16.74;100.00;100316.91;5155149;27;20279;-75
2021/10/31 10:23:50;;;;;;;;;;;;;;;16.89;100.00;100320.66;5155431;27;19923;-75
2021/10/31 10:26:29;;;;;;;;;;;;;;;16.80;100.00;100321.69;5154184;27;19927;-75
2021/10/31 10:28:59;;;;;;;;;;;;;;;16.72;100.00;100316.25;5155351;27;19998;-76
2021/10/31 10:31:27;;;;;;;;;;;;;;;16.74;100.00;100314.16;5154885;27;20013;-69
2021/10/31 10:33:54;;;;;;;;;;;;;;;16.85;100.00;100318.41;5153717;27;19930;-69
2021/10/31 10:36:23;;;;;;;;;;;;;;;17.15;100.00;100310.47;5152195;27;20349;-69
2021/10/31 10:39:00;;;;;;;;;;;;;;;17.35;100.00;100309.00;5153126;27;19923;-69
2021/10/31 10:41:40;;;;;;;;;;;;;;;17.54;100.00;100309.59;5153311;27;20020;-69
2021/10/31 10:44:20;;;;;;;;;;;;;;;17.60;100.00;100300.66;5153487;27;19978;-69
2021/10/31 10:46:47;;;;;;;;;;;;;;;17.81;100.00;100302.75;5153502;27;19967;-69
2021/10/31 10:49:17;;;;;;;;;;;;;;;17.35;100.00;100297.19;5154505;27;19923;-69
2021/10/31 10:51:43;;;;;;;;;;;;;;;17.18;100.00;100286.31;5155113;27;20061;-69
2021/10/31 10:54:11;;;;;;;;;;;;;;;17.62;100.00;100278.50;5154904;27;20018;-69
2021/10/31 10:56:37;;;;;;;;;;;;;;;17.29;100.00;100276.81;5153187;27;20424;-69
2021/10/31 10:59:04;;;;;;;;;;;;;;;17.47;100.00;100282.00;5154676;27;20022;-68
2021/10/31 11:01:30;;;;;;;;;;;;;;;17.53;100.00;100284.06;5154471;27;19927;-68
2021/10/31 11:03:56;;;;;;;;;;;;;;;17.72;100.00;100274.47;5154340;27;19934;-68
2021/10/31 11:06:27;;;;;;;;;;;;;;;17.61;100.00;100269.44;5154417;27;19927;-68
2021/10/31 11:09:12;;;;;;;;;;;;;;;17.51;100.00;100269.63;5153306;27;19927;-70
2021/10/31 11:11:40;;;;;;;;;;;;;;;17.52;100.00;100265.88;5154190;27;19973;-69
2021/10/31 11:14:06;;;;;;;;;;;;;;;17.51;100.00;100255.91;5154295;27;20372;-69
2021/10/31 11:16:33;;;;;;;;;;;;;;;17.51;100.00;100264.16;5153868;27;20348;-70
2021/10/31 11:18:59;;;;;;;;;;;;;;;17.64;100.00;100263.56;5153991;27;19970;-70
2021/10/31 11:21:25;;;;;;;;;;;;;;;17.43;100.00;100250.50;5153938;27;19923;-69
2021/10/31 11:23:56;;;;;;;;;;;;;;;17.62;100.00;100251.06;5154300;27;19968;-69
2021/10/31 11:26:24;;;;;;;;;;;;;;;17.87;100.00;100246.25;5154508;27;19923;-69
2021/10/31 11:28:52;;;;;;;;;;;;;;;17.81;100.00;100245.09;5154200;27;19964;-70
2021/10/31 11:31:20;;;;;;;;;;;;;;;17.69;100.00;100238.31;5153790;27;19949;-69
2021/10/31 11:33:47;;;;;;;;;;;;;;;17.48;100.00;100239.84;5156740;27;19934;-69
2021/10/31 11:36:13;;;;;;;;;;;;;;;17.59;100.00;100232.22;5154423;27;19923;-69
2021/10/31 11:38:41;;;;;;;;;;;;;;;17.88;100.00;100232.31;5153870;27;20447;-76
2021/10/31 11:41:10;;;;;;;;;;;;;;;18.08;100.00;100226.34;5153570;27;19933;-76
2021/10/31 11:43:38;;;;;;;;;;;;;;;18.25;100.00;100227.03;5154022;27;20411;-75
2021/10/31 11:46:06;;;;;;;;;;;;;;;17.86;100.00;100212.41;5153536;27;19923;-75
2021/10/31 11:48:34;;;;;;;;;;;;;;;18.06;100.00;100212.81;5153346;27;20009;-76
2021/10/31 11:51:08;;;;;;;;;;;;;;;17.89;100.00;100208.47;5153467;27;20017;-76
2021/10/31 11:53:35;;;;;;;;;;;;;;;18.07;100.00;100205.41;5153902;27;19927;-76
2021/10/31 11:56:03;;;;;;;;;;;;;;;18.35;100.00;100210.28;5153778;27;19959;-76
2021/10/31 11:58:52;;;;;;;;;;;;;;;18.49;100.00;100201.22;5153851;27;20326;-76
2021/10/31 12:01:21;;;;;;;;;;;;;;;18.30;100.00;100202.59;5153278;27;19976;-76
2021/10/31 12:03:49;;;;;;;;;;;;;;;18.05;100.00;100197.38;5153664;27;19923;-76
2021/10/31 12:06:47;;;;;;;;;;;;;;;17.86;100.00;100195.09;5152911;27;21217;-77
2021/10/31 12:09:24;;;;;;;;;;;;;;;17.80;100.00;100185.72;5089397;28;19928;-76
2021/10/31 12:12:14;;;;;;;;;;;;;;;17.94;100.00;100183.25;5143846;27;19970;-75
2021/10/31 12:15:02;;;;;;;;;;;;;;;18.09;100.00;100180.50;5148294;27;20030;-75
2021/10/31 12:17:43;;;;;;;;;;;;;;;18.36;100.00;100179.03;5148613;27;19923;-75
2021/10/31 12:20:13;;;;;;;;;;;;;;;18.48;100.00;100180.25;5152851;27;19979;-75
2021/10/31 12:22:39;;;;;;;;;;;;;;;18.74;100.00;100184.41;5153447;27;20026;-75
2021/10/31 12:25:08;;;;;;;;;;;;;;;19.09;100.00;100189.31;5153108;27;20354;-75
2021/10/31 12:27:41;;;;;;;;;;;;;;;19.28;100.00;100187.81;5152917;27;19930;-76
2021/10/31 12:30:37;;;;;;;;;;;;;;;19.49;100.00;100185.06;5152820;27;20014;-75
2021/10/31 12:33:06;;;;;;;;;;;;;;;18.99;100.00;100179.47;5152105;27;19966;-75
2021/10/31 12:35:34;;;;;;;;;;;;;;;18.97;100.00;100186.19;5152952;27;19966;-75
2021/10/31 12:38:28;;;;;;;;;;;;;;;19.12;100.00;100178.78;5153960;27;19961;-74